sensor_id;sensor_type;location;lat;lon;timestamp;P1;durP1;ratioP1;P2;durP2;ratioP2
71973;SDS011;59840;52.122;5.404;2024-03-06T00:01:50;24.23;;;15.00;;
71973;SDS011;59840;52.122;5.404;2024-03-06T00:04:17;23.20;;;14.18;;
71973;SDS011;59840;52.122;5.404;2024-03-06T00:06:45;19.20;;;12.63;;
71973;SDS011;59840;52.122;5.404;2024-03-06T00:09:12;36.47;;;11.15;;
71973;SDS011;59840;52.122;5.404;2024-03-06T00:11:38;17.48;;;12.20;;
71973;SDS011;59840;52.122;5.404;2024-03-06T00:14:06;17.37;;;10.90;;
71973;SDS011;59840;52.122;5.404;2024-03-06T00:16:33;15.90;;;10.10;;
71973;SDS011;59840;52.122;5.404;2024-03-06T00:19:00;15.85;;;10.80;;
71973;SDS011;59840;52.122;5.404;2024-03-06T00:21:27;16.15;;;11.40;;
71973;SDS011;59840;52.122;5.404;2024-03-06T00:23:55;16.58;;;10.70;;
71973;SDS011;59840;52.122;5.404;2024-03-06T00:26:21;14.93;;;10.77;;
71973;SDS011;59840;52.122;5.404;2024-03-06T00:28:48;14.25;;;10.48;;
71973;SDS011;59840;52.122;5.404;2024-03-06T00:31:15;13.38;;;9.65;;
71973;SDS011;59840;52.122;5.404;2024-03-06T00:33:41;14.45;;;9.63;;
71973;SDS011;59840;52.122;5.404;2024-03-06T00:36:08;13.73;;;9.10;;
71973;SDS011;59840;52.122;5.404;2024-03-06T00:38:35;19.77;;;11.37;;
71973;SDS011;59840;52.122;5.404;2024-03-06T00:41:01;15.82;;;10.27;;
71973;SDS011;59840;52.122;5.404;2024-03-06T00:43:28;19.35;;;11.18;;
71973;SDS011;59840;52.122;5.404;2024-03-06T00:45:55;15.25;;;10.45;;
71973;SDS011;59840;52.122;5.404;2024-03-06T00:48:22;16.92;;;10.70;;
71973;SDS011;59840;52.122;5.404;2024-03-06T00:50:49;22.17;;;9.57;;
71973;SDS011;59840;52.122;5.404;2024-03-06T00:53:15;121.55;;;11.18;;
71973;SDS011;59840;52.122;5.404;2024-03-06T00:55:42;22.50;;;9.13;;
71973;SDS011;59840;52.122;5.404;2024-03-06T00:58:09;42.30;;;10.05;;
71973;SDS011;59840;52.122;5.404;2024-03-06T01:00:35;13.48;;;9.25;;
71973;SDS011;59840;52.122;5.404;2024-03-06T01:03:02;13.20;;;9.10;;
71973;SDS011;59840;52.122;5.404;2024-03-06T01:05:28;12.60;;;9.18;;
71973;SDS011;59840;52.122;5.404;2024-03-06T01:07:55;14.45;;;9.32;;
71973;SDS011;59840;52.122;5.404;2024-03-06T01:10:23;16.55;;;10.95;;
71973;SDS011;59840;52.122;5.404;2024-03-06T01:12:50;17.00;;;10.82;;
71973;SDS011;59840;52.122;5.404;2024-03-06T01:15:16;17.40;;;11.50;;
71973;SDS011;59840;52.122;5.404;2024-03-06T01:17:43;14.25;;;9.98;;
71973;SDS011;59840;52.122;5.404;2024-03-06T01:20:10;12.70;;;9.27;;
71973;SDS011;59840;52.122;5.404;2024-03-06T01:22:37;14.38;;;9.90;;
71973;SDS011;59840;52.122;5.404;2024-03-06T01:25:04;14.45;;;9.70;;
71973;SDS011;59840;52.122;5.404;2024-03-06T01:27:31;15.13;;;9.97;;
71973;SDS011;59840;52.122;5.404;2024-03-06T01:29:57;18.70;;;10.88;;
71973;SDS011;59840;52.122;5.404;2024-03-06T01:32:24;16.00;;;10.75;;
71973;SDS011;59840;52.122;5.404;2024-03-06T01:34:50;18.75;;;11.80;;
71973;SDS011;59840;52.122;5.404;2024-03-06T01:37:17;17.33;;;10.98;;
71973;SDS011;59840;52.122;5.404;2024-03-06T01:39:44;18.23;;;11.40;;
71973;SDS011;59840;52.122;5.404;2024-03-06T01:42:10;14.52;;;10.50;;
71973;SDS011;59840;52.122;5.404;2024-03-06T01:44:37;20.05;;;11.00;;
71973;SDS011;59840;52.122;5.404;2024-03-06T01:47:04;16.80;;;10.43;;
71973;SDS011;59840;52.122;5.404;2024-03-06T01:49:30;16.50;;;10.35;;
71973;SDS011;59840;52.122;5.404;2024-03-06T01:52:09;16.83;;;10.00;;
71973;SDS011;59840;52.122;5.404;2024-03-06T01:54:39;16.02;;;10.50;;
71973;SDS011;59840;52.122;5.404;2024-03-06T01:57:06;16.52;;;9.73;;
71973;SDS011;59840;52.122;5.404;2024-03-06T01:59:34;18.70;;;10.35;;
71973;SDS011;59840;52.122;5.404;2024-03-06T02:02:03;13.95;;;9.43;;
71973;SDS011;59840;52.122;5.404;2024-03-06T02:04:30;17.43;;;9.50;;
71973;SDS011;59840;52.122;5.404;2024-03-06T02:06:58;17.60;;;10.82;;
71973;SDS011;59840;52.122;5.404;2024-03-06T02:09:25;15.48;;;11.05;;
71973;SDS011;59840;52.122;5.404;2024-03-06T02:11:51;17.70;;;11.07;;
71973;SDS011;59840;52.122;5.404;2024-03-06T02:14:18;20.15;;;10.32;;
71973;SDS011;59840;52.122;5.404;2024-03-06T02:16:44;12.37;;;9.20;;
71973;SDS011;59840;52.122;5.404;2024-03-06T02:19:11;13.98;;;8.85;;
71973;SDS011;59840;52.122;5.404;2024-03-06T02:21:38;18.42;;;9.93;;
71973;SDS011;59840;52.122;5.404;2024-03-06T02:24:04;15.27;;;10.15;;
71973;SDS011;59840;52.122;5.404;2024-03-06T02:26:31;17.05;;;9.77;;
71973;SDS011;59840;52.122;5.404;2024-03-06T02:28:57;18.90;;;8.30;;
71973;SDS011;59840;52.122;5.404;2024-03-06T02:31:24;16.73;;;9.32;;
71973;SDS011;59840;52.122;5.404;2024-03-06T02:33:51;38.10;;;9.18;;
71973;SDS011;59840;52.122;5.404;2024-03-06T02:36:17;17.60;;;8.75;;
71973;SDS011;59840;52.122;5.404;2024-03-06T02:38:45;10.32;;;7.75;;
71973;SDS011;59840;52.122;5.404;2024-03-06T02:41:12;12.00;;;8.53;;
71973;SDS011;59840;52.122;5.404;2024-03-06T02:43:42;12.18;;;8.30;;
71973;SDS011;59840;52.122;5.404;2024-03-06T02:46:09;13.63;;;8.65;;
71973;SDS011;59840;52.122;5.404;2024-03-06T02:48:36;13.05;;;8.85;;
71973;SDS011;59840;52.122;5.404;2024-03-06T02:51:02;21.70;;;7.70;;
71973;SDS011;59840;52.122;5.404;2024-03-06T02:53:29;23.83;;;7.90;;
71973;SDS011;59840;52.122;5.404;2024-03-06T02:55:55;29.50;;;8.90;;
71973;SDS011;59840;52.122;5.404;2024-03-06T02:58:22;15.82;;;8.25;;
71973;SDS011;59840;52.122;5.404;2024-03-06T03:00:48;13.50;;;8.25;;
71973;SDS011;59840;52.122;5.404;2024-03-06T03:03:15;41.72;;;8.73;;
71973;SDS011;59840;52.122;5.404;2024-03-06T03:05:42;34.13;;;8.43;;
71973;SDS011;59840;52.122;5.404;2024-03-06T03:08:08;18.52;;;8.30;;
71973;SDS011;59840;52.122;5.404;2024-03-06T03:10:35;15.68;;;8.20;;
71973;SDS011;59840;52.122;5.404;2024-03-06T03:13:02;11.57;;;8.05;;
71973;SDS011;59840;52.122;5.404;2024-03-06T03:15:31;13.52;;;8.10;;
71973;SDS011;59840;52.122;5.404;2024-03-06T03:18:02;36.63;;;8.30;;
71973;SDS011;59840;52.122;5.404;2024-03-06T03:20:29;67.13;;;7.78;;
71973;SDS011;59840;52.122;5.404;2024-03-06T03:22:55;47.78;;;8.23;;
71973;SDS011;59840;52.122;5.404;2024-03-06T03:25:22;24.38;;;8.35;;
71973;SDS011;59840;52.122;5.404;2024-03-06T03:27:49;15.75;;;9.57;;
71973;SDS011;59840;52.122;5.404;2024-03-06T03:30:16;30.00;;;9.03;;
71973;SDS011;59840;52.122;5.404;2024-03-06T03:32:47;16.27;;;9.07;;
71973;SDS011;59840;52.122;5.404;2024-03-06T03:35:15;21.60;;;8.38;;
71973;SDS011;59840;52.122;5.404;2024-03-06T03:37:42;15.77;;;8.85;;
71973;SDS011;59840;52.122;5.404;2024-03-06T03:40:10;14.23;;;8.50;;
71973;SDS011;59840;52.122;5.404;2024-03-06T03:42:38;11.97;;;7.23;;
71973;SDS011;59840;52.122;5.404;2024-03-06T03:45:05;17.52;;;8.20;;
71973;SDS011;59840;52.122;5.404;2024-03-06T03:47:31;14.50;;;7.25;;
71973;SDS011;59840;52.122;5.404;2024-03-06T03:49:58;11.40;;;8.15;;
71973;SDS011;59840;52.122;5.404;2024-03-06T03:52:36;15.25;;;8.35;;
71973;SDS011;59840;52.122;5.404;2024-03-06T03:55:03;16.13;;;9.20;;
71973;SDS011;59840;52.122;5.404;2024-03-06T03:57:30;15.93;;;8.50;;
71973;SDS011;59840;52.122;5.404;2024-03-06T03:59:57;17.33;;;9.63;;
71973;SDS011;59840;52.122;5.404;2024-03-06T04:02:23;15.27;;;8.32;;
71973;SDS011;59840;52.122;5.404;2024-03-06T04:04:50;12.70;;;8.35;;
71973;SDS011;59840;52.122;5.404;2024-03-06T04:07:17;15.67;;;9.00;;
71973;SDS011;59840;52.122;5.404;2024-03-06T04:09:45;12.60;;;8.20;;
71973;SDS011;59840;52.122;5.404;2024-03-06T04:12:11;18.00;;;9.43;;
71973;SDS011;59840;52.122;5.404;2024-03-06T04:14:38;14.63;;;8.82;;
71973;SDS011;59840;52.122;5.404;2024-03-06T04:17:06;10.73;;;7.28;;
71973;SDS011;59840;52.122;5.404;2024-03-06T04:19:32;9.27;;;6.60;;
71973;SDS011;59840;52.122;5.404;2024-03-06T04:21:59;23.30;;;8.48;;
71973;SDS011;59840;52.122;5.404;2024-03-06T04:24:26;28.58;;;7.60;;
71973;SDS011;59840;52.122;5.404;2024-03-06T04:26:52;81.30;;;9.68;;
71973;SDS011;59840;52.122;5.404;2024-03-06T04:29:19;55.60;;;9.32;;
71973;SDS011;59840;52.122;5.404;2024-03-06T04:31:46;72.53;;;8.70;;
71973;SDS011;59840;52.122;5.404;2024-03-06T04:34:12;63.67;;;7.75;;
71973;SDS011;59840;52.122;5.404;2024-03-06T04:36:39;81.80;;;9.95;;
71973;SDS011;59840;52.122;5.404;2024-03-06T04:39:05;100.32;;;9.70;;
71973;SDS011;59840;52.122;5.404;2024-03-06T04:41:33;70.13;;;9.35;;
71973;SDS011;59840;52.122;5.404;2024-03-06T04:44:00;60.37;;;8.97;;
71973;SDS011;59840;52.122;5.404;2024-03-06T04:46:27;70.05;;;9.18;;
71973;SDS011;59840;52.122;5.404;2024-03-06T04:48:53;26.40;;;7.35;;
71973;SDS011;59840;52.122;5.404;2024-03-06T04:51:20;30.55;;;7.25;;
71973;SDS011;59840;52.122;5.404;2024-03-06T04:53:47;39.40;;;7.45;;
71973;SDS011;59840;52.122;5.404;2024-03-06T04:56:14;44.43;;;9.10;;
71973;SDS011;59840;52.122;5.404;2024-03-06T04:58:42;53.55;;;8.82;;
71973;SDS011;59840;52.122;5.404;2024-03-06T05:01:11;45.63;;;8.90;;
71973;SDS011;59840;52.122;5.404;2024-03-06T05:03:39;58.28;;;8.82;;
71973;SDS011;59840;52.122;5.404;2024-03-06T05:06:23;58.20;;;9.00;;
71973;SDS011;59840;52.122;5.404;2024-03-06T05:09:07;28.93;;;8.67;;
71973;SDS011;59840;52.122;5.404;2024-03-06T05:11:54;35.88;;;9.05;;
71973;SDS011;59840;52.122;5.404;2024-03-06T05:14:38;36.25;;;8.77;;
71973;SDS011;59840;52.122;5.404;2024-03-06T05:17:22;37.25;;;9.25;;
71973;SDS011;59840;52.122;5.404;2024-03-06T05:20:07;56.90;;;9.63;;
71973;SDS011;59840;52.122;5.404;2024-03-06T05:22:51;52.53;;;9.30;;
71973;SDS011;59840;52.122;5.404;2024-03-06T05:25:35;72.13;;;10.82;;
71973;SDS011;59840;52.122;5.404;2024-03-06T05:28:19;47.03;;;9.63;;
71973;SDS011;59840;52.122;5.404;2024-03-06T05:31:15;104.38;;;10.23;;
71973;SDS011;59840;52.122;5.404;2024-03-06T05:34:02;107.47;;;11.57;;
71973;SDS011;59840;52.122;5.404;2024-03-06T05:36:49;44.87;;;9.17;;
71973;SDS011;59840;52.122;5.404;2024-03-06T05:39:34;19.23;;;8.35;;
71973;SDS011;59840;52.122;5.404;2024-03-06T05:42:19;69.80;;;9.90;;
71973;SDS011;59840;52.122;5.404;2024-03-06T05:45:03;68.20;;;9.43;;
71973;SDS011;59840;52.122;5.404;2024-03-06T05:47:54;39.47;;;9.25;;
71973;SDS011;59840;52.122;5.404;2024-03-06T05:50:38;59.80;;;10.13;;
71973;SDS011;59840;52.122;5.404;2024-03-06T05:53:23;64.68;;;10.60;;
71973;SDS011;59840;52.122;5.404;2024-03-06T05:56:07;69.15;;;9.88;;
71973;SDS011;59840;52.122;5.404;2024-03-06T05:58:50;32.50;;;8.68;;
71973;SDS011;59840;52.122;5.404;2024-03-06T06:01:17;38.90;;;9.98;;
71973;SDS011;59840;52.122;5.404;2024-03-06T06:03:48;70.67;;;10.63;;
71973;SDS011;59840;52.122;5.404;2024-03-06T06:06:15;64.65;;;11.15;;
71973;SDS011;59840;52.122;5.404;2024-03-06T06:08:42;61.58;;;10.95;;
71973;SDS011;59840;52.122;5.404;2024-03-06T06:11:10;54.10;;;10.45;;
71973;SDS011;59840;52.122;5.404;2024-03-06T06:13:38;118.30;;;12.43;;
71973;SDS011;59840;52.122;5.404;2024-03-06T06:16:07;46.53;;;10.37;;
71973;SDS011;59840;52.122;5.404;2024-03-06T06:18:34;85.75;;;11.00;;
71973;SDS011;59840;52.122;5.404;2024-03-06T06:21:01;89.47;;;11.98;;
71973;SDS011;59840;52.122;5.404;2024-03-06T06:23:27;69.10;;;11.27;;
71973;SDS011;59840;52.122;5.404;2024-03-06T06:25:55;119.40;;;11.90;;
71973;SDS011;59840;52.122;5.404;2024-03-06T06:28:22;60.27;;;11.43;;
71973;SDS011;59840;52.122;5.404;2024-03-06T06:30:49;82.20;;;12.68;;
71973;SDS011;59840;52.122;5.404;2024-03-06T06:33:18;93.63;;;11.73;;
71973;SDS011;59840;52.122;5.404;2024-03-06T06:35:45;95.38;;;11.35;;
71973;SDS011;59840;52.122;5.404;2024-03-06T06:38:12;62.03;;;12.32;;
71973;SDS011;59840;52.122;5.404;2024-03-06T06:40:42;125.10;;;15.20;;
71973;SDS011;59840;52.122;5.404;2024-03-06T06:43:08;116.43;;;14.73;;
71973;SDS011;59840;52.122;5.404;2024-03-06T06:45:35;147.88;;;14.63;;
71973;SDS011;59840;52.122;5.404;2024-03-06T06:48:04;65.90;;;12.68;;
71973;SDS011;59840;52.122;5.404;2024-03-06T06:50:31;179.35;;;15.98;;
71973;SDS011;59840;52.122;5.404;2024-03-06T06:53:00;108.10;;;13.57;;
71973;SDS011;59840;52.122;5.404;2024-03-06T06:55:26;89.18;;;13.07;;
71973;SDS011;59840;52.122;5.404;2024-03-06T06:57:53;145.50;;;14.82;;
71973;SDS011;59840;52.122;5.404;2024-03-06T07:00:20;85.63;;;13.32;;
71973;SDS011;59840;52.122;5.404;2024-03-06T07:02:49;93.05;;;13.13;;
71973;SDS011;59840;52.122;5.404;2024-03-06T07:05:16;122.20;;;12.87;;
71973;SDS011;59840;52.122;5.404;2024-03-06T07:07:42;99.90;;;12.82;;
71973;SDS011;59840;52.122;5.404;2024-03-06T07:10:09;127.90;;;13.65;;
71973;SDS011;59840;52.122;5.404;2024-03-06T07:12:37;141.43;;;14.32;;
71973;SDS011;59840;52.122;5.404;2024-03-06T07:15:04;97.45;;;13.48;;
71973;SDS011;59840;52.122;5.404;2024-03-06T07:17:31;136.90;;;14.23;;
71973;SDS011;59840;52.122;5.404;2024-03-06T07:19:58;118.13;;;13.70;;
71973;SDS011;59840;52.122;5.404;2024-03-06T07:22:24;123.40;;;14.73;;
71973;SDS011;59840;52.122;5.404;2024-03-06T07:24:51;99.45;;;13.75;;
71973;SDS011;59840;52.122;5.404;2024-03-06T07:27:17;63.45;;;14.60;;
71973;SDS011;59840;52.122;5.404;2024-03-06T07:29:44;66.57;;;13.47;;
71973;SDS011;59840;52.122;5.404;2024-03-06T07:32:11;83.70;;;14.07;;
71973;SDS011;59840;52.122;5.404;2024-03-06T07:34:37;75.53;;;14.00;;
71973;SDS011;59840;52.122;5.404;2024-03-06T07:37:04;62.65;;;13.98;;
71973;SDS011;59840;52.122;5.404;2024-03-06T07:39:31;56.88;;;13.00;;
71973;SDS011;59840;52.122;5.404;2024-03-06T07:41:58;65.80;;;13.60;;
71973;SDS011;59840;52.122;5.404;2024-03-06T07:44:25;32.72;;;13.60;;
71973;SDS011;59840;52.122;5.404;2024-03-06T07:46:52;58.30;;;14.52;;
71973;SDS011;59840;52.122;5.404;2024-03-06T07:49:20;78.78;;;14.75;;
71973;SDS011;59840;52.122;5.404;2024-03-06T07:51:50;42.17;;;13.68;;
71973;SDS011;59840;52.122;5.404;2024-03-06T07:54:16;50.33;;;13.13;;
71973;SDS011;59840;52.122;5.404;2024-03-06T07:56:43;43.55;;;13.85;;
71973;SDS011;59840;52.122;5.404;2024-03-06T09:07:50;44.80;;;16.27;;
71973;SDS011;59840;52.122;5.404;2024-03-06T09:10:17;37.80;;;15.87;;
71973;SDS011;59840;52.122;5.404;2024-03-06T09:12:45;46.55;;;17.13;;
71973;SDS011;59840;52.122;5.404;2024-03-06T09:15:13;44.72;;;16.25;;
71973;SDS011;59840;52.122;5.404;2024-03-06T09:17:41;43.20;;;17.77;;
71973;SDS011;59840;52.122;5.404;2024-03-06T09:20:08;39.88;;;16.77;;
71973;SDS011;59840;52.122;5.404;2024-03-06T09:22:40;45.47;;;17.37;;
71973;SDS011;59840;52.122;5.404;2024-03-06T09:25:08;30.73;;;16.70;;
71973;SDS011;59840;52.122;5.404;2024-03-06T09:27:35;42.03;;;17.40;;
71973;SDS011;59840;52.122;5.404;2024-03-06T09:30:02;36.05;;;16.50;;
71973;SDS011;59840;52.122;5.404;2024-03-06T09:40:05;31.08;;;15.20;;
71973;SDS011;59840;52.122;5.404;2024-03-06T09:42:33;28.30;;;15.98;;
71973;SDS011;59840;52.122;5.404;2024-03-06T09:45:00;29.48;;;15.52;;
71973;SDS011;59840;52.122;5.404;2024-03-06T09:47:28;28.70;;;16.38;;
71973;SDS011;59840;52.122;5.404;2024-03-06T09:49:59;30.13;;;16.10;;
71973;SDS011;59840;52.122;5.404;2024-03-06T09:52:26;30.40;;;15.85;;
71973;SDS011;59840;52.122;5.404;2024-03-06T09:54:56;26.67;;;14.27;;
71973;SDS011;59840;52.122;5.404;2024-03-06T09:57:23;27.67;;;15.43;;
71973;SDS011;59840;52.122;5.404;2024-03-06T09:59:50;26.48;;;15.38;;
71973;SDS011;59840;52.122;5.404;2024-03-06T10:05:20;26.75;;;15.07;;
71973;SDS011;59840;52.122;5.404;2024-03-06T10:07:48;27.58;;;14.85;;
71973;SDS011;59840;52.122;5.404;2024-03-06T10:10:15;24.77;;;14.85;;
71973;SDS011;59840;52.122;5.404;2024-03-06T10:12:42;27.52;;;15.48;;
71973;SDS011;59840;52.122;5.404;2024-03-06T10:15:11;25.83;;;15.57;;
71973;SDS011;59840;52.122;5.404;2024-03-06T10:17:38;29.75;;;15.43;;
71973;SDS011;59840;52.122;5.404;2024-03-06T10:20:16;24.77;;;14.38;;
71973;SDS011;59840;52.122;5.404;2024-03-06T10:22:52;25.40;;;14.50;;
71973;SDS011;59840;52.122;5.404;2024-03-06T10:25:24;28.35;;;14.80;;
71973;SDS011;59840;52.122;5.404;2024-03-06T10:28:09;24.63;;;14.13;;
71973;SDS011;59840;52.122;5.404;2024-03-06T10:30:40;24.38;;;14.80;;
71973;SDS011;59840;52.122;5.404;2024-03-06T10:33:09;25.30;;;14.88;;
71973;SDS011;59840;52.122;5.404;2024-03-06T10:35:43;23.42;;;13.98;;
71973;SDS011;59840;52.122;5.404;2024-03-06T10:38:11;24.38;;;14.98;;
71973;SDS011;59840;52.122;5.404;2024-03-06T10:40:42;23.80;;;14.07;;
71973;SDS011;59840;52.122;5.404;2024-03-06T10:43:10;24.17;;;14.40;;
71973;SDS011;59840;52.122;5.404;2024-03-06T10:48:13;26.15;;;14.85;;
71973;SDS011;59840;52.122;5.404;2024-03-06T10:50:44;25.80;;;14.57;;
71973;SDS011;59840;52.122;5.404;2024-03-06T10:53:16;24.73;;;14.07;;
71973;SDS011;59840;52.122;5.404;2024-03-06T10:55:49;25.58;;;13.82;;
71973;SDS011;59840;52.122;5.404;2024-03-06T10:58:16;25.77;;;14.50;;
71973;SDS011;59840;52.122;5.404;2024-03-06T11:00:46;21.80;;;14.05;;
71973;SDS011;59840;52.122;5.404;2024-03-06T11:03:16;24.70;;;14.02;;
71973;SDS011;59840;52.122;5.404;2024-03-06T11:05:44;24.87;;;13.77;;
71973;SDS011;59840;52.122;5.404;2024-03-06T11:08:14;22.92;;;13.55;;
71973;SDS011;59840;52.122;5.404;2024-03-06T11:10:43;22.90;;;14.63;;
71973;SDS011;59840;52.122;5.404;2024-03-06T11:15:46;22.63;;;13.70;;
71973;SDS011;59840;52.122;5.404;2024-03-06T11:20:59;20.95;;;12.70;;
71973;SDS011;59840;52.122;5.404;2024-03-06T11:23:26;22.80;;;12.88;;
71973;SDS011;59840;52.122;5.404;2024-03-06T11:28:22;20.20;;;12.18;;
71973;SDS011;59840;52.122;5.404;2024-03-06T11:33:20;21.95;;;12.63;;
71973;SDS011;59840;52.122;5.404;2024-03-06T11:38:59;23.52;;;12.32;;
71973;SDS011;59840;52.122;5.404;2024-03-06T11:41:31;20.70;;;12.52;;
71973;SDS011;59840;52.122;5.404;2024-03-06T11:44:14;24.37;;;12.90;;
71973;SDS011;59840;52.122;5.404;2024-03-06T11:49:23;19.95;;;12.20;;
71973;SDS011;59840;52.122;5.404;2024-03-06T11:51:52;23.17;;;12.82;;
71973;SDS011;59840;52.122;5.404;2024-03-06T11:54:19;22.25;;;11.52;;
71973;SDS011;59840;52.122;5.404;2024-03-06T11:56:50;22.10;;;12.70;;
71973;SDS011;59840;52.122;5.404;2024-03-06T11:59:23;24.15;;;13.23;;
71973;SDS011;59840;52.122;5.404;2024-03-06T12:01:57;20.35;;;12.07;;
71973;SDS011;59840;52.122;5.404;2024-03-06T12:04:29;17.77;;;12.10;;
71973;SDS011;59840;52.122;5.404;2024-03-06T12:06:58;22.85;;;12.40;;
71973;SDS011;59840;52.122;5.404;2024-03-06T12:09:26;22.37;;;12.60;;
71973;SDS011;59840;52.122;5.404;2024-03-06T12:11:55;17.00;;;11.68;;
71973;SDS011;59840;52.122;5.404;2024-03-06T12:14:23;19.48;;;11.98;;
71973;SDS011;59840;52.122;5.404;2024-03-06T12:16:56;21.58;;;11.25;;
71973;SDS011;59840;52.122;5.404;2024-03-06T12:19:25;18.50;;;11.57;;
71973;SDS011;59840;52.122;5.404;2024-03-06T12:21:52;17.17;;;11.00;;
71973;SDS011;59840;52.122;5.404;2024-03-06T12:24:20;17.60;;;10.52;;
71973;SDS011;59840;52.122;5.404;2024-03-06T12:26:46;17.90;;;11.13;;
71973;SDS011;59840;52.122;5.404;2024-03-06T12:29:28;21.50;;;11.88;;
71973;SDS011;59840;52.122;5.404;2024-03-06T12:31:59;18.08;;;10.88;;
71973;SDS011;59840;52.122;5.404;2024-03-06T12:34:27;14.30;;;8.70;;
71973;SDS011;59840;52.122;5.404;2024-03-06T12:36:53;13.95;;;9.68;;
71973;SDS011;59840;52.122;5.404;2024-03-06T12:39:20;14.35;;;9.13;;
71973;SDS011;59840;52.122;5.404;2024-03-06T12:41:50;13.52;;;8.77;;
71973;SDS011;59840;52.122;5.404;2024-03-06T12:44:18;12.65;;;7.25;;
71973;SDS011;59840;52.122;5.404;2024-03-06T12:46:46;13.23;;;7.67;;
71973;SDS011;59840;52.122;5.404;2024-03-06T12:49:13;12.35;;;8.35;;
71973;SDS011;59840;52.122;5.404;2024-03-06T12:51:39;13.38;;;8.68;;
71973;SDS011;59840;52.122;5.404;2024-03-06T12:54:07;14.07;;;8.68;;
71973;SDS011;59840;52.122;5.404;2024-03-06T12:56:35;11.20;;;7.65;;
71973;SDS011;59840;52.122;5.404;2024-03-06T12:59:02;8.57;;;7.20;;
71973;SDS011;59840;52.122;5.404;2024-03-06T13:01:30;10.70;;;7.03;;
71973;SDS011;59840;52.122;5.404;2024-03-06T13:03:58;11.30;;;6.38;;
71973;SDS011;59840;52.122;5.404;2024-03-06T13:06:32;8.27;;;6.25;;
71973;SDS011;59840;52.122;5.404;2024-03-06T13:08:59;10.07;;;6.25;;
71973;SDS011;59840;52.122;5.404;2024-03-06T13:11:25;7.73;;;6.47;;
71973;SDS011;59840;52.122;5.404;2024-03-06T13:13:52;10.75;;;6.18;;
71973;SDS011;59840;52.122;5.404;2024-03-06T13:16:19;11.25;;;6.57;;
71973;SDS011;59840;52.122;5.404;2024-03-06T13:18:47;9.23;;;6.45;;
71973;SDS011;59840;52.122;5.404;2024-03-06T13:21:14;8.45;;;6.13;;
71973;SDS011;59840;52.122;5.404;2024-03-06T13:23:41;7.53;;;5.40;;
71973;SDS011;59840;52.122;5.404;2024-03-06T13:26:08;9.25;;;6.30;;
71973;SDS011;59840;52.122;5.404;2024-03-06T13:28:35;9.63;;;6.35;;
71973;SDS011;59840;52.122;5.404;2024-03-06T13:31:01;7.85;;;4.97;;
71973;SDS011;59840;52.122;5.404;2024-03-06T13:33:29;7.70;;;6.03;;
71973;SDS011;59840;52.122;5.404;2024-03-06T13:35:56;10.63;;;6.30;;
71973;SDS011;59840;52.122;5.404;2024-03-06T13:38:23;7.47;;;5.47;;
71973;SDS011;59840;52.122;5.404;2024-03-06T13:40:50;10.30;;;5.88;;
71973;SDS011;59840;52.122;5.404;2024-03-06T13:43:16;8.23;;;6.07;;
71973;SDS011;59840;52.122;5.404;2024-03-06T13:45:49;8.07;;;5.30;;
71973;SDS011;59840;52.122;5.404;2024-03-06T13:48:16;9.50;;;5.33;;
71973;SDS011;59840;52.122;5.404;2024-03-06T13:50:43;10.38;;;5.78;;
71973;SDS011;59840;52.122;5.404;2024-03-06T13:53:11;9.98;;;5.53;;
71973;SDS011;59840;52.122;5.404;2024-03-06T13:55:38;12.73;;;5.38;;
71973;SDS011;59840;52.122;5.404;2024-03-06T13:58:06;7.97;;;5.20;;
71973;SDS011;59840;52.122;5.404;2024-03-06T14:00:33;7.33;;;5.23;;
71973;SDS011;59840;52.122;5.404;2024-03-06T14:03:01;7.13;;;4.82;;
71973;SDS011;59840;52.122;5.404;2024-03-06T14:05:28;8.88;;;5.30;;
71973;SDS011;59840;52.122;5.404;2024-03-06T14:07:55;7.35;;;5.00;;
71973;SDS011;59840;52.122;5.404;2024-03-06T14:10:23;8.20;;;4.97;;
71973;SDS011;59840;52.122;5.404;2024-03-06T14:12:50;7.33;;;4.87;;
71973;SDS011;59840;52.122;5.404;2024-03-06T14:15:19;10.73;;;5.43;;
71973;SDS011;59840;52.122;5.404;2024-03-06T14:17:46;6.75;;;5.00;;
71973;SDS011;59840;52.122;5.404;2024-03-06T14:20:13;12.23;;;6.20;;
71973;SDS011;59840;52.122;5.404;2024-03-06T14:22:39;14.13;;;5.63;;
71973;SDS011;59840;52.122;5.404;2024-03-06T14:25:06;9.60;;;5.60;;
71973;SDS011;59840;52.122;5.404;2024-03-06T14:27:34;8.27;;;5.60;;
71973;SDS011;59840;52.122;5.404;2024-03-06T14:30:05;9.52;;;5.63;;
71973;SDS011;59840;52.122;5.404;2024-03-06T14:32:39;11.20;;;6.07;;
71973;SDS011;59840;52.122;5.404;2024-03-06T14:35:06;13.25;;;6.20;;
71973;SDS011;59840;52.122;5.404;2024-03-06T14:37:33;8.20;;;5.33;;
71973;SDS011;59840;52.122;5.404;2024-03-06T14:40:00;9.80;;;5.75;;
71973;SDS011;59840;52.122;5.404;2024-03-06T14:42:31;8.18;;;5.40;;
71973;SDS011;59840;52.122;5.404;2024-03-06T14:44:58;12.85;;;5.82;;
71973;SDS011;59840;52.122;5.404;2024-03-06T14:47:25;8.75;;;5.35;;
71973;SDS011;59840;52.122;5.404;2024-03-06T14:49:52;10.30;;;4.67;;
71973;SDS011;59840;52.122;5.404;2024-03-06T14:52:20;7.43;;;5.43;;
71973;SDS011;59840;52.122;5.404;2024-03-06T14:54:46;12.88;;;5.85;;
71973;SDS011;59840;52.122;5.404;2024-03-06T14:57:13;9.00;;;5.07;;
71973;SDS011;59840;52.122;5.404;2024-03-06T14:59:40;12.48;;;5.72;;
71973;SDS011;59840;52.122;5.404;2024-03-06T15:02:07;9.63;;;5.57;;
71973;SDS011;59840;52.122;5.404;2024-03-06T15:04:34;10.90;;;6.10;;
71973;SDS011;59840;52.122;5.404;2024-03-06T15:07:00;8.80;;;5.20;;
71973;SDS011;59840;52.122;5.404;2024-03-06T15:09:27;12.98;;;5.45;;
71973;SDS011;59840;52.122;5.404;2024-03-06T15:11:54;9.52;;;5.28;;
71973;SDS011;59840;52.122;5.404;2024-03-06T15:14:23;12.70;;;5.80;;
71973;SDS011;59840;52.122;5.404;2024-03-06T15:16:50;9.98;;;6.18;;
71973;SDS011;59840;52.122;5.404;2024-03-06T15:19:16;7.72;;;5.63;;
71973;SDS011;59840;52.122;5.404;2024-03-06T15:21:43;9.25;;;5.25;;
71973;SDS011;59840;52.122;5.404;2024-03-06T15:24:09;8.82;;;5.50;;
71973;SDS011;59840;52.122;5.404;2024-03-06T15:26:36;10.63;;;5.93;;
71973;SDS011;59840;52.122;5.404;2024-03-06T15:29:03;8.60;;;5.15;;
71973;SDS011;59840;52.122;5.404;2024-03-06T15:31:31;7.00;;;5.15;;
71973;SDS011;59840;52.122;5.404;2024-03-06T15:33:58;7.90;;;5.47;;
71973;SDS011;59840;52.122;5.404;2024-03-06T15:36:25;9.45;;;5.20;;
71973;SDS011;59840;52.122;5.404;2024-03-06T15:38:52;6.53;;;4.90;;
71973;SDS011;59840;52.122;5.404;2024-03-06T15:41:22;8.35;;;5.22;;
71973;SDS011;59840;52.122;5.404;2024-03-06T15:43:48;8.18;;;4.95;;
71973;SDS011;59840;52.122;5.404;2024-03-06T15:46:15;10.48;;;5.47;;
71973;SDS011;59840;52.122;5.404;2024-03-06T15:48:42;8.13;;;4.97;;
71973;SDS011;59840;52.122;5.404;2024-03-06T15:51:09;5.13;;;3.90;;
71973;SDS011;59840;52.122;5.404;2024-03-06T15:53:36;7.78;;;5.10;;
71973;SDS011;59840;52.122;5.404;2024-03-06T15:56:03;7.47;;;4.60;;
71973;SDS011;59840;52.122;5.404;2024-03-06T15:58:30;6.85;;;4.90;;
71973;SDS011;59840;52.122;5.404;2024-03-06T16:00:57;8.10;;;4.45;;
71973;SDS011;59840;52.122;5.404;2024-03-06T16:03:27;8.33;;;4.50;;
71973;SDS011;59840;52.122;5.404;2024-03-06T16:05:54;6.95;;;4.47;;
71973;SDS011;59840;52.122;5.404;2024-03-06T16:08:36;8.25;;;4.82;;
71973;SDS011;59840;52.122;5.404;2024-03-06T16:11:04;7.78;;;4.25;;
71973;SDS011;59840;52.122;5.404;2024-03-06T16:13:33;8.57;;;4.93;;
71973;SDS011;59840;52.122;5.404;2024-03-06T16:16:00;7.53;;;4.33;;
71973;SDS011;59840;52.122;5.404;2024-03-06T16:18:26;7.28;;;4.95;;